sensor_id;sensor_type;location;lat;lon;timestamp;P1;durP1;ratioP1;P2;durP2;ratioP2
17650;SDS011;26663;59.302;18.082;2024-03-23T00:56:18;10.97;;;2.20;;
17650;SDS011;26663;59.302;18.082;2024-03-23T00:59:20;6.47;;;2.40;;
17650;SDS011;26663;59.302;18.082;2024-03-23T01:02:28;6.90;;;2.10;;
17650;SDS011;26663;59.302;18.082;2024-03-23T01:05:30;9.67;;;2.00;;
17650;SDS011;26663;59.302;18.082;2024-03-23T01:08:33;9.77;;;2.20;;
17650;SDS011;26663;59.302;18.082;2024-03-23T01:11:36;7.03;;;2.23;;
17650;SDS011;26663;59.302;18.082;2024-03-23T01:14:39;7.10;;;1.83;;
17650;SDS011;26663;59.302;18.082;2024-03-23T01:17:41;7.07;;;2.10;;
17650;SDS011;26663;59.302;18.082;2024-03-23T01:20:44;9.63;;;2.20;;
17650;SDS011;26663;59.302;18.082;2024-03-23T01:23:46;7.33;;;1.80;;
17650;SDS011;26663;59.302;18.082;2024-03-23T01:26:50;7.17;;;2.17;;
17650;SDS011;26663;59.302;18.082;2024-03-23T01:29:53;5.57;;;2.03;;
17650;SDS011;26663;59.302;18.082;2024-03-23T01:32:55;8.20;;;1.67;;
17650;SDS011;26663;59.302;18.082;2024-03-23T01:35:58;7.40;;;1.80;;
17650;SDS011;26663;59.302;18.082;2024-03-23T01:39:01;6.43;;;1.77;;
17650;SDS011;26663;59.302;18.082;2024-03-23T01:42:04;7.60;;;2.10;;
17650;SDS011;26663;59.302;18.082;2024-03-23T01:45:08;7.00;;;1.50;;
17650;SDS011;26663;59.302;18.082;2024-03-23T01:48:10;4.97;;;1.80;;
17650;SDS011;26663;59.302;18.082;2024-03-23T01:51:13;10.80;;;1.90;;
17650;SDS011;26663;59.302;18.082;2024-03-23T01:54:16;6.77;;;2.10;;
17650;SDS011;26663;59.302;18.082;2024-03-23T01:57:20;5.60;;;2.00;;
17650;SDS011;26663;59.302;18.082;2024-03-23T02:00:23;4.53;;;1.77;;
17650;SDS011;26663;59.302;18.082;2024-03-23T02:03:25;8.73;;;2.00;;
17650;SDS011;26663;59.302;18.082;2024-03-23T02:06:29;4.53;;;1.87;;
17650;SDS011;26663;59.302;18.082;2024-03-23T02:09:32;7.40;;;1.80;;
17650;SDS011;26663;59.302;18.082;2024-03-23T02:12:36;3.83;;;1.70;;
17650;SDS011;26663;59.302;18.082;2024-03-23T02:15:38;7.17;;;1.60;;
17650;SDS011;26663;59.302;18.082;2024-03-23T02:18:42;6.43;;;1.70;;
17650;SDS011;26663;59.302;18.082;2024-03-23T02:21:44;6.50;;;2.20;;
17650;SDS011;26663;59.302;18.082;2024-03-23T02:24:49;4.97;;;2.10;;
17650;SDS011;26663;59.302;18.082;2024-03-23T02:27:51;6.17;;;1.67;;
17650;SDS011;26663;59.302;18.082;2024-03-23T02:30:55;6.07;;;1.73;;
17650;SDS011;26663;59.302;18.082;2024-03-23T02:33:57;3.33;;;1.63;;
17650;SDS011;26663;59.302;18.082;2024-03-23T02:36:59;10.00;;;2.03;;
17650;SDS011;26663;59.302;18.082;2024-03-23T02:40:03;3.93;;;1.40;;
17650;SDS011;26663;59.302;18.082;2024-03-23T02:43:06;8.93;;;1.90;;
17650;SDS011;26663;59.302;18.082;2024-03-23T02:46:09;6.53;;;2.07;;
17650;SDS011;26663;59.302;18.082;2024-03-23T02:49:11;3.03;;;2.20;;
17650;SDS011;26663;59.302;18.082;2024-03-23T02:52:13;8.20;;;1.90;;
17650;SDS011;26663;59.302;18.082;2024-03-23T02:55:16;4.83;;;1.83;;
17650;SDS011;26663;59.302;18.082;2024-03-23T02:58:20;7.10;;;2.03;;
17650;SDS011;26663;59.302;18.082;2024-03-23T03:01:22;7.23;;;1.80;;
17650;SDS011;26663;59.302;18.082;2024-03-23T03:04:25;9.57;;;2.30;;
17650;SDS011;26663;59.302;18.082;2024-03-23T03:07:28;9.30;;;2.60;;
17650;SDS011;26663;59.302;18.082;2024-03-23T03:10:31;8.47;;;1.83;;
17650;SDS011;26663;59.302;18.082;2024-03-23T03:13:36;7.67;;;2.03;;
17650;SDS011;26663;59.302;18.082;2024-03-23T03:16:37;5.73;;;1.80;;
17650;SDS011;26663;59.302;18.082;2024-03-23T03:19:40;11.37;;;2.37;;
17650;SDS011;26663;59.302;18.082;2024-03-23T03:22:42;8.30;;;2.30;;
17650;SDS011;26663;59.302;18.082;2024-03-23T03:25:46;11.00;;;1.90;;
17650;SDS011;26663;59.302;18.082;2024-03-23T03:28:48;8.17;;;2.03;;
17650;SDS011;26663;59.302;18.082;2024-03-23T03:31:51;13.67;;;2.13;;
17650;SDS011;26663;59.302;18.082;2024-03-23T03:34:52;8.03;;;2.20;;
17650;SDS011;26663;59.302;18.082;2024-03-23T03:37:55;9.73;;;1.93;;
17650;SDS011;26663;59.302;18.082;2024-03-23T03:40:58;9.13;;;2.20;;
17650;SDS011;26663;59.302;18.082;2024-03-23T03:44:01;14.27;;;2.70;;
17650;SDS011;26663;59.302;18.082;2024-03-23T03:47:03;12.10;;;2.23;;
17650;SDS011;26663;59.302;18.082;2024-03-23T03:50:07;9.87;;;2.00;;
17650;SDS011;26663;59.302;18.082;2024-03-23T03:53:08;12.17;;;2.37;;
17650;SDS011;26663;59.302;18.082;2024-03-23T03:56:13;15.00;;;2.37;;
17650;SDS011;26663;59.302;18.082;2024-03-23T03:59:15;7.13;;;2.17;;
17650;SDS011;26663;59.302;18.082;2024-03-23T04:02:18;7.73;;;2.43;;
17650;SDS011;26663;59.302;18.082;2024-03-23T04:05:19;8.90;;;2.10;;
17650;SDS011;26663;59.302;18.082;2024-03-23T04:08:23;15.27;;;2.50;;
17650;SDS011;26663;59.302;18.082;2024-03-23T04:11:27;9.23;;;2.23;;
17650;SDS011;26663;59.302;18.082;2024-03-23T04:14:29;8.30;;;1.73;;
17650;SDS011;26663;59.302;18.082;2024-03-23T04:17:31;13.03;;;2.27;;
17650;SDS011;26663;59.302;18.082;2024-03-23T04:20:35;12.03;;;2.93;;
17650;SDS011;26663;59.302;18.082;2024-03-23T04:23:38;11.07;;;2.43;;
17650;SDS011;26663;59.302;18.082;2024-03-23T04:26:41;9.73;;;2.53;;
17650;SDS011;26663;59.302;18.082;2024-03-23T04:29:46;9.63;;;2.20;;
17650;SDS011;26663;59.302;18.082;2024-03-23T04:32:49;16.73;;;2.43;;
17650;SDS011;26663;59.302;18.082;2024-03-23T04:35:51;11.20;;;2.23;;
17650;SDS011;26663;59.302;18.082;2024-03-23T04:38:53;11.77;;;2.83;;
17650;SDS011;26663;59.302;18.082;2024-03-23T04:41:57;13.90;;;2.70;;
17650;SDS011;26663;59.302;18.082;2024-03-23T04:45:00;15.77;;;2.63;;
17650;SDS011;26663;59.302;18.082;2024-03-23T04:48:03;11.57;;;2.20;;
17650;SDS011;26663;59.302;18.082;2024-03-23T04:51:08;10.10;;;2.20;;
17650;SDS011;26663;59.302;18.082;2024-03-23T04:54:10;18.00;;;2.47;;
17650;SDS011;26663;59.302;18.082;2024-03-23T04:57:15;8.73;;;2.43;;
17650;SDS011;26663;59.302;18.082;2024-03-23T05:00:21;11.77;;;2.20;;
17650;SDS011;26663;59.302;18.082;2024-03-23T05:03:24;10.60;;;2.53;;
17650;SDS011;26663;59.302;18.082;2024-03-23T05:06:27;8.50;;;2.70;;
17650;SDS011;26663;59.302;18.082;2024-03-23T05:09:29;12.07;;;2.20;;
17650;SDS011;26663;59.302;18.082;2024-03-23T05:12:35;6.87;;;2.13;;
17650;SDS011;26663;59.302;18.082;2024-03-23T05:15:38;15.43;;;2.83;;
17650;SDS011;26663;59.302;18.082;2024-03-23T05:18:39;8.80;;;2.27;;
17650;SDS011;26663;59.302;18.082;2024-03-23T05:21:42;10.07;;;2.20;;
17650;SDS011;26663;59.302;18.082;2024-03-23T05:24:44;16.23;;;2.67;;
17650;SDS011;26663;59.302;18.082;2024-03-23T05:27:49;9.53;;;2.30;;
17650;SDS011;26663;59.302;18.082;2024-03-23T05:30:51;15.80;;;2.63;;
17650;SDS011;26663;59.302;18.082;2024-03-23T05:33:54;17.83;;;3.03;;
17650;SDS011;26663;59.302;18.082;2024-03-23T05:36:56;15.87;;;2.67;;
17650;SDS011;26663;59.302;18.082;2024-03-23T05:39:59;8.87;;;2.33;;
17650;SDS011;26663;59.302;18.082;2024-03-23T05:43:02;11.23;;;2.50;;
17650;SDS011;26663;59.302;18.082;2024-03-23T05:46:05;15.37;;;2.57;;
17650;SDS011;26663;59.302;18.082;2024-03-23T05:49:09;8.97;;;2.60;;
17650;SDS011;26663;59.302;18.082;2024-03-23T05:52:11;5.67;;;2.27;;
17650;SDS011;26663;59.302;18.082;2024-03-23T05:55:13;13.40;;;2.50;;
17650;SDS011;26663;59.302;18.082;2024-03-23T05:58:17;11.80;;;2.63;;
17650;SDS011;26663;59.302;18.082;2024-03-23T06:01:19;12.23;;;3.23;;
17650;SDS011;26663;59.302;18.082;2024-03-23T06:04:22;18.17;;;2.57;;
17650;SDS011;26663;59.302;18.082;2024-03-23T06:07:25;11.63;;;3.00;;
17650;SDS011;26663;59.302;18.082;2024-03-23T06:10:27;11.00;;;2.57;;
17650;SDS011;26663;59.302;18.082;2024-03-23T06:13:32;10.53;;;2.60;;
17650;SDS011;26663;59.302;18.082;2024-03-23T06:16:35;7.03;;;2.20;;
17650;SDS011;26663;59.302;18.082;2024-03-23T06:19:37;14.27;;;2.40;;
17650;SDS011;26663;59.302;18.082;2024-03-23T06:22:39;15.20;;;2.70;;
17650;SDS011;26663;59.302;18.082;2024-03-23T06:25:41;8.43;;;2.50;;
17650;SDS011;26663;59.302;18.082;2024-03-23T06:28:45;16.20;;;3.13;;
17650;SDS011;26663;59.302;18.082;2024-03-23T06:31:52;9.67;;;2.23;;
17650;SDS011;26663;59.302;18.082;2024-03-23T06:34:55;11.90;;;3.13;;
17650;SDS011;26663;59.302;18.082;2024-03-23T06:37:57;21.03;;;3.20;;
17650;SDS011;26663;59.302;18.082;2024-03-23T06:41:02;8.97;;;2.50;;
17650;SDS011;26663;59.302;18.082;2024-03-23T06:44:05;12.63;;;2.83;;
17650;SDS011;26663;59.302;18.082;2024-03-23T06:47:08;9.93;;;2.60;;
17650;SDS011;26663;59.302;18.082;2024-03-23T06:50:10;17.97;;;2.67;;
17650;SDS011;26663;59.302;18.082;2024-03-23T06:53:13;6.60;;;2.70;;
17650;SDS011;26663;59.302;18.082;2024-03-23T06:56:15;15.23;;;2.83;;
17650;SDS011;26663;59.302;18.082;2024-03-23T06:59:19;11.27;;;2.63;;
17650;SDS011;26663;59.302;18.082;2024-03-23T07:02:21;17.70;;;2.90;;
17650;SDS011;26663;59.302;18.082;2024-03-23T07:05:24;13.30;;;2.70;;
17650;SDS011;26663;59.302;18.082;2024-03-23T07:08:26;12.20;;;2.57;;
17650;SDS011;26663;59.302;18.082;2024-03-23T07:11:29;15.40;;;3.40;;
17650;SDS011;26663;59.302;18.082;2024-03-23T07:14:33;13.80;;;2.53;;
17650;SDS011;26663;59.302;18.082;2024-03-23T07:17:36;14.73;;;2.53;;
17650;SDS011;26663;59.302;18.082;2024-03-23T07:20:38;12.33;;;2.87;;
17650;SDS011;26663;59.302;18.082;2024-03-23T07:23:41;11.60;;;2.50;;
17650;SDS011;26663;59.302;18.082;2024-03-23T07:26:45;13.80;;;2.87;;
17650;SDS011;26663;59.302;18.082;2024-03-23T07:29:50;19.07;;;2.80;;
17650;SDS011;26663;59.302;18.082;2024-03-23T07:32:52;13.73;;;2.50;;
17650;SDS011;26663;59.302;18.082;2024-03-23T07:35:55;10.83;;;2.37;;
17650;SDS011;26663;59.302;18.082;2024-03-23T07:38:57;8.33;;;2.07;;
17650;SDS011;26663;59.302;18.082;2024-03-23T07:41:59;18.33;;;2.83;;
17650;SDS011;26663;59.302;18.082;2024-03-23T07:45:04;17.90;;;2.73;;
17650;SDS011;26663;59.302;18.082;2024-03-23T07:48:06;10.07;;;2.70;;
17650;SDS011;26663;59.302;18.082;2024-03-23T07:51:10;8.80;;;2.73;;
17650;SDS011;26663;59.302;18.082;2024-03-23T07:54:12;13.23;;;3.00;;
17650;SDS011;26663;59.302;18.082;2024-03-23T07:57:15;19.37;;;2.80;;
17650;SDS011;26663;59.302;18.082;2024-03-23T08:00:19;10.70;;;2.70;;
17650;SDS011;26663;59.302;18.082;2024-03-23T08:03:21;13.93;;;2.73;;
17650;SDS011;26663;59.302;18.082;2024-03-23T08:06:24;12.40;;;2.57;;
17650;SDS011;26663;59.302;18.082;2024-03-23T08:09:26;13.27;;;2.47;;
17650;SDS011;26663;59.302;18.082;2024-03-23T08:12:29;12.97;;;2.60;;
17650;SDS011;26663;59.302;18.082;2024-03-23T08:15:33;9.83;;;2.80;;
17650;SDS011;26663;59.302;18.082;2024-03-23T08:18:35;10.30;;;2.17;;
17650;SDS011;26663;59.302;18.082;2024-03-23T08:21:37;4.63;;;2.07;;
17650;SDS011;26663;59.302;18.082;2024-03-23T08:24:39;13.25;;;2.85;;
17650;SDS011;26663;59.302;18.082;2024-03-23T08:27:43;11.37;;;2.53;;
17650;SDS011;26663;59.302;18.082;2024-03-23T08:30:47;12.00;;;2.50;;
17650;SDS011;26663;59.302;18.082;2024-03-23T08:33:50;10.25;;;2.40;;
17650;SDS011;26663;59.302;18.082;2024-03-23T08:36:52;12.37;;;2.73;;
17650;SDS011;26663;59.302;18.082;2024-03-23T08:39:55;11.18;;;2.28;;
17650;SDS011;26663;59.302;18.082;2024-03-23T08:42:56;11.93;;;2.63;;
17650;SDS011;26663;59.302;18.082;2024-03-23T08:46:04;9.67;;;2.80;;
17650;SDS011;26663;59.302;18.082;2024-03-23T08:49:07;11.13;;;2.22;;
17650;SDS011;26663;59.302;18.082;2024-03-23T08:52:09;13.80;;;2.78;;
17650;SDS011;26663;59.302;18.082;2024-03-23T08:55:11;11.00;;;2.50;;
17650;SDS011;26663;59.302;18.082;2024-03-23T08:58:15;11.82;;;2.25;;
17650;SDS011;26663;59.302;18.082;2024-03-23T09:01:20;15.30;;;2.72;;
17650;SDS011;26663;59.302;18.082;2024-03-23T09:04:22;15.55;;;2.75;;
17650;SDS011;26663;59.302;18.082;2024-03-23T09:07:24;10.48;;;2.50;;
17650;SDS011;26663;59.302;18.082;2024-03-23T09:10:27;15.25;;;2.80;;
17650;SDS011;26663;59.302;18.082;2024-03-23T09:13:29;14.23;;;2.55;;
17650;SDS011;26663;59.302;18.082;2024-03-23T09:16:33;15.95;;;2.70;;
17650;SDS011;26663;59.302;18.082;2024-03-23T09:19:36;20.75;;;3.10;;
17650;SDS011;26663;59.302;18.082;2024-03-23T09:22:38;9.05;;;2.67;;
17650;SDS011;26663;59.302;18.082;2024-03-23T09:25:40;16.90;;;3.10;;
17650;SDS011;26663;59.302;18.082;2024-03-23T09:28:42;11.82;;;3.13;;
17650;SDS011;26663;59.302;18.082;2024-03-23T09:31:46;14.20;;;2.35;;
17650;SDS011;26663;59.302;18.082;2024-03-23T09:34:50;15.60;;;2.78;;
17650;SDS011;26663;59.302;18.082;2024-03-23T09:37:51;17.73;;;3.10;;
17650;SDS011;26663;59.302;18.082;2024-03-23T09:40:54;16.48;;;2.80;;
17650;SDS011;26663;59.302;18.082;2024-03-23T09:43:57;15.35;;;2.95;;
17650;SDS011;26663;59.302;18.082;2024-03-23T09:47:02;11.70;;;2.30;;
17650;SDS011;26663;59.302;18.082;2024-03-23T09:50:04;10.98;;;2.58;;
17650;SDS011;26663;59.302;18.082;2024-03-23T09:53:09;27.63;;;3.38;;
17650;SDS011;26663;59.302;18.082;2024-03-23T09:56:13;10.90;;;2.45;;
17650;SDS011;26663;59.302;18.082;2024-03-23T09:59:15;18.52;;;3.38;;
17650;SDS011;26663;59.302;18.082;2024-03-23T10:02:19;15.75;;;3.60;;
17650;SDS011;26663;59.302;18.082;2024-03-23T10:05:22;15.98;;;2.60;;
17650;SDS011;26663;59.302;18.082;2024-03-23T10:08:25;20.00;;;3.15;;
17650;SDS011;26663;59.302;18.082;2024-03-23T10:11:27;16.38;;;3.25;;
17650;SDS011;26663;59.302;18.082;2024-03-23T10:14:30;13.38;;;2.97;;
17650;SDS011;26663;59.302;18.082;2024-03-23T10:17:33;15.55;;;2.38;;
17650;SDS011;26663;59.302;18.082;2024-03-23T10:20:36;13.80;;;2.70;;
17650;SDS011;26663;59.302;18.082;2024-03-23T10:23:38;11.55;;;2.75;;
17650;SDS011;26663;59.302;18.082;2024-03-23T10:26:42;18.05;;;2.97;;
17650;SDS011;26663;59.302;18.082;2024-03-23T10:29:44;15.25;;;2.65;;
17650;SDS011;26663;59.302;18.082;2024-03-23T10:32:48;13.48;;;2.65;;
17650;SDS011;26663;59.302;18.082;2024-03-23T10:35:51;10.45;;;2.78;;
17650;SDS011;26663;59.302;18.082;2024-03-23T10:38:54;9.65;;;2.35;;
17650;SDS011;26663;59.302;18.082;2024-03-23T10:42:00;17.20;;;3.10;;
17650;SDS011;26663;59.302;18.082;2024-03-23T10:45:04;11.45;;;2.50;;
17650;SDS011;26663;59.302;18.082;2024-03-23T10:48:09;13.93;;;2.78;;
17650;SDS011;26663;59.302;18.082;2024-03-23T10:51:11;11.18;;;2.78;;
17650;SDS011;26663;59.302;18.082;2024-03-23T10:54:13;14.25;;;2.45;;
17650;SDS011;26663;59.302;18.082;2024-03-23T10:57:16;10.10;;;2.33;;
17650;SDS011;26663;59.302;18.082;2024-03-23T11:00:20;11.90;;;2.38;;
17650;SDS011;26663;59.302;18.082;2024-03-23T11:03:36;14.02;;;2.40;;
17650;SDS011;26663;59.302;18.082;2024-03-23T11:06:39;6.25;;;2.10;;
17650;SDS011;26663;59.302;18.082;2024-03-23T11:09:42;12.60;;;2.28;;
17650;SDS011;26663;59.302;18.082;2024-03-23T11:12:46;15.32;;;3.25;;
17650;SDS011;26663;59.302;18.082;2024-03-23T11:15:49;15.40;;;2.42;;
17650;SDS011;26663;59.302;18.082;2024-03-23T11:18:52;20.80;;;3.15;;
17650;SDS011;26663;59.302;18.082;2024-03-23T11:21:55;7.95;;;2.50;;
17650;SDS011;26663;59.302;18.082;2024-03-23T11:24:57;11.70;;;2.20;;
17650;SDS011;26663;59.302;18.082;2024-03-23T11:28:10;19.83;;;2.50;;
17650;SDS011;26663;59.302;18.082;2024-03-23T11:31:12;13.45;;;2.80;;
17650;SDS011;26663;59.302;18.082;2024-03-23T11:34:18;9.13;;;2.20;;
17650;SDS011;26663;59.302;18.082;2024-03-23T11:37:20;15.05;;;2.28;;
17650;SDS011;26663;59.302;18.082;2024-03-23T11:40:23;15.43;;;2.42;;
17650;SDS011;26663;59.302;18.082;2024-03-23T11:43:25;12.02;;;2.53;;
17650;SDS011;26663;59.302;18.082;2024-03-23T11:46:28;13.35;;;2.50;;
17650;SDS011;26663;59.302;18.082;2024-03-23T11:49:31;12.32;;;2.50;;
17650;SDS011;26663;59.302;18.082;2024-03-23T11:52:34;9.35;;;2.33;;
17650;SDS011;26663;59.302;18.082;2024-03-23T11:55:46;16.17;;;3.08;;
17650;SDS011;26663;59.302;18.082;2024-03-23T11:58:50;10.30;;;2.80;;
17650;SDS011;26663;59.302;18.082;2024-03-23T12:01:54;12.10;;;2.70;;
17650;SDS011;26663;59.302;18.082;2024-03-23T12:04:58;11.80;;;2.67;;
17650;SDS011;26663;59.302;18.082;2024-03-23T12:08:16;17.38;;;2.53;;
17650;SDS011;26663;59.302;18.082;2024-03-23T12:11:20;14.65;;;2.40;;
17650;SDS011;26663;59.302;18.082;2024-03-23T12:14:24;17.42;;;2.80;;
17650;SDS011;26663;59.302;18.082;2024-03-23T12:17:27;11.52;;;2.60;;
17650;SDS011;26663;59.302;18.082;2024-03-23T12:20:31;12.35;;;2.60;;
17650;SDS011;26663;59.302;18.082;2024-03-23T12:23:34;7.10;;;2.03;;
17650;SDS011;26663;59.302;18.082;2024-03-23T12:26:37;13.40;;;2.47;;
17650;SDS011;26663;59.302;18.082;2024-03-23T12:29:41;11.10;;;2.83;;
17650;SDS011;26663;59.302;18.082;2024-03-23T12:32:44;6.18;;;2.15;;
17650;SDS011;26663;59.302;18.082;2024-03-23T12:35:47;14.43;;;2.65;;
17650;SDS011;26663;59.302;18.082;2024-03-23T12:38:50;9.65;;;2.47;;
17650;SDS011;26663;59.302;18.082;2024-03-23T12:41:52;6.57;;;2.22;;
17650;SDS011;26663;59.302;18.082;2024-03-23T12:44:55;10.65;;;2.25;;
17650;SDS011;26663;59.302;18.082;2024-03-23T12:47:58;9.02;;;2.45;;
17650;SDS011;26663;59.302;18.082;2024-03-23T12:51:02;12.13;;;2.30;;
17650;SDS011;26663;59.302;18.082;2024-03-23T12:54:04;9.75;;;2.83;;
17650;SDS011;26663;59.302;18.082;2024-03-23T12:57:07;16.05;;;2.80;;
17650;SDS011;26663;59.302;18.082;2024-03-23T13:00:10;6.95;;;2.10;;
17650;SDS011;26663;59.302;18.082;2024-03-23T13:03:14;8.35;;;2.42;;
17650;SDS011;26663;59.302;18.082;2024-03-23T13:06:18;6.35;;;2.35;;
17650;SDS011;26663;59.302;18.082;2024-03-23T13:09:21;9.60;;;1.92;;
17650;SDS011;26663;59.302;18.082;2024-03-23T13:12:24;9.35;;;2.30;;
17650;SDS011;26663;59.302;18.082;2024-03-23T13:15:25;9.60;;;1.83;;
17650;SDS011;26663;59.302;18.082;2024-03-23T13:18:29;8.95;;;2.70;;
17650;SDS011;26663;59.302;18.082;2024-03-23T13:21:32;8.85;;;2.90;;
17650;SDS011;26663;59.302;18.082;2024-03-23T13:24:35;7.60;;;1.88;;
17650;SDS011;26663;59.302;18.082;2024-03-23T13:27:38;7.68;;;2.72;;
17650;SDS011;26663;59.302;18.082;2024-03-23T13:30:39;8.48;;;2.22;;
17650;SDS011;26663;59.302;18.082;2024-03-23T13:33:43;9.23;;;2.10;;
17650;SDS011;26663;59.302;18.082;2024-03-23T13:36:46;8.15;;;2.40;;
17650;SDS011;26663;59.302;18.082;2024-03-23T13:39:49;4.47;;;1.60;;
17650;SDS011;26663;59.302;18.082;2024-03-23T13:42:52;3.17;;;1.52;;
17650;SDS011;26663;59.302;18.082;2024-03-23T13:45:56;3.03;;;1.45;;
17650;SDS011;26663;59.302;18.082;2024-03-23T13:49:00;1.88;;;1.50;;
17650;SDS011;26663;59.302;18.082;2024-03-23T13:52:03;4.40;;;1.30;;
17650;SDS011;26663;59.302;18.082;2024-03-23T13:55:08;3.80;;;1.30;;
17650;SDS011;26663;59.302;18.082;2024-03-23T13:58:12;2.58;;;1.50;;
17650;SDS011;26663;59.302;18.082;2024-03-23T14:01:15;4.93;;;1.52;;
17650;SDS011;26663;59.302;18.082;2024-03-23T14:04:19;6.38;;;1.92;;
17650;SDS011;26663;59.302;18.082;2024-03-23T14:07:22;3.42;;;1.23;;
17650;SDS011;26663;59.302;18.082;2024-03-23T14:10:26;1.67;;;1.45;;
17650;SDS011;26663;59.302;18.082;2024-03-23T14:13:28;2.33;;;1.90;;
17650;SDS011;26663;59.302;18.082;2024-03-23T14:16:31;2.03;;;1.40;;
17650;SDS011;26663;59.302;18.082;2024-03-23T14:19:34;6.22;;;1.40;;
17650;SDS011;26663;59.302;18.082;2024-03-23T14:22:38;3.75;;;1.30;;
17650;SDS011;26663;59.302;18.082;2024-03-23T14:25:42;3.83;;;1.30;;
17650;SDS011;26663;59.302;18.082;2024-03-23T14:28:44;4.43;;;1.45;;
17650;SDS011;26663;59.302;18.082;2024-03-23T14:31:47;2.58;;;1.48;;
17650;SDS011;26663;59.302;18.082;2024-03-23T14:34:51;6.10;;;1.35;;
17650;SDS011;26663;59.302;18.082;2024-03-23T14:37:56;4.60;;;1.48;;
17650;SDS011;26663;59.302;18.082;2024-03-23T14:40:59;5.25;;;1.58;;
17650;SDS011;26663;59.302;18.082;2024-03-23T14:44:01;5.75;;;1.50;;
17650;SDS011;26663;59.302;18.082;2024-03-23T14:47:04;1.30;;;1.17;;
17650;SDS011;26663;59.302;18.082;2024-03-23T14:50:07;1.52;;;1.30;;
17650;SDS011;26663;59.302;18.082;2024-03-23T14:53:14;3.67;;;1.42;;
17650;SDS011;26663;59.302;18.082;2024-03-23T14:56:17;2.88;;;1.65;;
17650;SDS011;26663;59.302;18.082;2024-03-23T14:59:19;4.53;;;1.63;;
17650;SDS011;26663;59.302;18.082;2024-03-23T15:02:22;4.40;;;1.63;;
17650;SDS011;26663;59.302;18.082;2024-03-23T15:05:25;2.15;;;1.15;;
17650;SDS011;26663;59.302;18.082;2024-03-23T15:08:29;5.68;;;2.00;;
17650;SDS011;26663;59.302;18.082;2024-03-23T15:11:31;6.45;;;1.67;;
17650;SDS011;26663;59.302;18.082;2024-03-23T15:14:34;5.53;;;1.60;;
17650;SDS011;26663;59.302;18.082;2024-03-23T15:17:36;5.32;;;1.65;;
17650;SDS011;26663;59.302;18.082;2024-03-23T15:20:51;1.45;;;1.35;;
17650;SDS011;26663;59.302;18.082;2024-03-23T15:23:55;4.20;;;1.48;;
17650;SDS011;26663;59.302;18.082;2024-03-23T15:26:57;6.95;;;1.75;;
17650;SDS011;26663;59.302;18.082;2024-03-23T15:30:00;6.20;;;1.77;;
17650;SDS011;26663;59.302;18.082;2024-03-23T15:33:02;2.53;;;1.52;;
17650;SDS011;26663;59.302;18.082;2024-03-23T15:36:05;3.13;;;1.63;;
17650;SDS011;26663;59.302;18.082;2024-03-23T15:39:09;4.90;;;1.60;;
17650;SDS011;26663;59.302;18.082;2024-03-23T15:42:11;8.43;;;1.65;;
17650;SDS011;26663;59.302;18.082;2024-03-23T15:45:13;5.50;;;1.50;;
17650;SDS011;26663;59.302;18.082;2024-03-23T15:48:16;4.20;;;1.55;;
17650;SDS011;26663;59.302;18.082;2024-03-23T15:51:18;2.72;;;1.75;;
17650;SDS011;26663;59.302;18.082;2024-03-23T15:54:22;1.63;;;1.35;;
17650;SDS011;26663;59.302;18.082;2024-03-23T15:57:24;1.48;;;1.35;;
17650;SDS011;26663;59.302;18.082;2024-03-23T16:00:26;1.92;;;1.20;;
17650;SDS011;26663;59.302;18.082;2024-03-23T16:03:28;2.92;;;1.33;;
17650;SDS011;26663;59.302;18.082;2024-03-23T16:06:32;2.70;;;1.60;;
17650;SDS011;26663;59.302;18.082;2024-03-23T16:09:37;5.15;;;1.77;;
17650;SDS011;26663;59.302;18.082;2024-03-23T16:12:39;1.60;;;1.35;;
17650;SDS011;26663;59.302;18.082;2024-03-23T16:15:41;4.03;;;1.40;;
17650;SDS011;26663;59.302;18.082;2024-03-23T16:18:43;5.40;;;1.73;;
17650;SDS011;26663;59.302;18.082;2024-03-23T16:21:47;4.57;;;1.63;;
17650;SDS011;26663;59.302;18.082;2024-03-23T16:24:50;6.65;;;1.80;;
17650;SDS011;26663;59.302;18.082;2024-03-23T16:27:53;6.95;;;1.50;;
17650;SDS011;26663;59.302;18.082;2024-03-23T16:30:55;2.17;;;1.75;;
17650;SDS011;26663;59.302;18.082;2024-03-23T16:33:58;5.93;;;1.50;;
17650;SDS011;26663;59.302;18.082;2024-03-23T16:37:01;5.35;;;1.90;;
17650;SDS011;26663;59.302;18.082;2024-03-23T16:40:06;5.22;;;1.50;;
17650;SDS011;26663;59.302;18.082;2024-03-23T16:43:10;3.85;;;1.70;;
17650;SDS011;26663;59.302;18.082;2024-03-23T16:46:12;2.65;;;1.67;;
17650;SDS011;26663;59.302;18.082;2024-03-23T16:49:16;5.75;;;1.98;;
17650;SDS011;26663;59.302;18.082;2024-03-23T16:52:19;2.55;;;2.00;;
17650;SDS011;26663;59.302;18.082;2024-03-23T16:55:23;7.20;;;2.42;;
17650;SDS011;26663;59.302;18.082;2024-03-23T16:58:26;6.50;;;1.88;;
17650;SDS011;26663;59.302;18.082;2024-03-23T17:01:28;2.38;;;1.40;;
17650;SDS011;26663;59.302;18.082;2024-03-23T17:04:30;2.67;;;1.92;;
17650;SDS011;26663;59.302;18.082;2024-03-23T17:07:32;3.63;;;1.88;;
17650;SDS011;26663;59.302;18.082;2024-03-23T17:10:36;5.32;;;2.10;;
17650;SDS011;26663;59.302;18.082;2024-03-23T17:13:38;4.47;;;2.03;;
17650;SDS011;26663;59.302;18.082;2024-03-23T17:16:41;4.72;;;2.20;;
17650;SDS011;26663;59.302;18.082;2024-03-23T17:19:43;4.43;;;2.30;;
17650;SDS011;26663;59.302;18.082;2024-03-23T17:22:52;5.80;;;2.30;;
17650;SDS011;26663;59.302;18.082;2024-03-23T17:25:56;6.13;;;1.83;;
17650;SDS011;26663;59.302;18.082;2024-03-23T17:28:59;1.90;;;1.65;;
17650;SDS011;26663;59.302;18.082;2024-03-23T17:32:01;4.97;;;1.77;;
17650;SDS011;26663;59.302;18.082;2024-03-23T17:35:04;5.35;;;2.40;;
17650;SDS011;26663;59.302;18.082;2024-03-23T17:38:07;5.45;;;2.38;;
17650;SDS011;26663;59.302;18.082;2024-03-23T17:41:11;6.72;;;2.22;;
17650;SDS011;26663;59.302;18.082;2024-03-23T17:44:13;4.63;;;2.25;;
17650;SDS011;26663;59.302;18.082;2024-03-23T17:47:16;4.38;;;3.00;;
17650;SDS011;26663;59.302;18.082;2024-03-23T17:50:18;6.72;;;4.50;;
17650;SDS011;26663;59.302;18.082;2024-03-23T17:53:21;8.43;;;3.80;;
17650;SDS011;26663;59.302;18.082;2024-03-23T17:56:24;7.15;;;3.72;;
17650;SDS011;26663;59.302;18.082;2024-03-23T17:59:27;7.68;;;4.00;;
17650;SDS011;26663;59.302;18.082;2024-03-23T18:02:29;6.60;;;3.30;;
17650;SDS011;26663;59.302;18.082;2024-03-23T18:05:33;9.70;;;2.80;;
17650;SDS011;26663;59.302;18.082;2024-03-23T18:08:35;8.68;;;2.97;;
17650;SDS011;26663;59.302;18.082;2024-03-23T18:11:40;5.73;;;2.13;;
17650;SDS011;26663;59.302;18.082;2024-03-23T18:14:42;4.25;;;2.50;;
17650;SDS011;26663;59.302;18.082;2024-03-23T18:17:45;2.90;;;2.57;;
17650;SDS011;26663;59.302;18.082;2024-03-23T18:20:49;2.97;;;2.30;;
17650;SDS011;26663;59.302;18.082;2024-03-23T18:23:52;2.43;;;2.20;;
17650;SDS011;26663;59.302;18.082;2024-03-23T18:26:56;4.20;;;2.33;;
17650;SDS011;26663;59.302;18.082;2024-03-23T18:29:58;12.50;;;2.83;;
17650;SDS011;26663;59.302;18.082;2024-03-23T18:33:00;5.03;;;2.90;;
17650;SDS011;26663;59.302;18.082;2024-03-23T18:36:02;7.57;;;3.00;;
17650;SDS011;26663;59.302;18.082;2024-03-23T18:39:06;8.33;;;2.80;;
17650;SDS011;26663;59.302;18.082;2024-03-23T18:42:09;5.40;;;2.60;;
17650;SDS011;26663;59.302;18.082;2024-03-23T18:45:12;5.67;;;2.80;;
17650;SDS011;26663;59.302;18.082;2024-03-23T18:48:14;6.00;;;3.10;;
17650;SDS011;26663;59.302;18.082;2024-03-23T18:51:17;5.53;;;3.00;;
17650;SDS011;26663;59.302;18.082;2024-03-23T18:54:21;3.97;;;2.60;;